createdAt,value
2018-11-03T00:02:05.431Z,96235.33
2018-11-03T00:04:37.346Z,96239.17
2018-11-03T00:07:09.150Z,96230.55
2018-11-03T00:09:41.009Z,96231.68
2018-11-03T00:12:12.783Z,96238.13
2018-11-03T00:14:44.625Z,96229.99
2018-11-03T00:17:16.482Z,96231.19
2018-11-03T00:19:48.501Z,96235.71
2018-11-03T00:22:20.293Z,96236.94
2018-11-03T00:24:52.440Z,96231.71
2018-11-03T00:27:24.768Z,96237.67
2018-11-03T00:29:56.743Z,96238.20
2018-11-03T00:32:30.101Z,96231.75
2018-11-03T00:35:02.534Z,96232.41
2018-11-03T00:37:34.506Z,96226.56
2018-11-03T00:40:07.675Z,96230.73
2018-11-03T00:42:39.715Z,96227.36
2018-11-03T00:45:13.099Z,96228.31
2018-11-03T00:47:45.379Z,96228.52
2018-11-03T00:50:17.568Z,96235.95
2018-11-03T00:52:49.480Z,96232.13
2018-11-03T00:55:21.314Z,96232.59
2018-11-03T00:57:53.736Z,96231.44
2018-11-03T01:00:25.669Z,96244.55
2018-11-03T01:02:57.771Z,96246.41
2018-11-03T01:05:29.718Z,96244.86
2018-11-03T01:08:01.787Z,96246.27
2018-11-03T01:10:33.627Z,96249.59
2018-11-03T01:13:05.618Z,96252.64
2018-11-03T01:15:37.441Z,96248.30
2018-11-03T01:18:09.264Z,96249.48
2018-11-03T01:20:41.135Z,96250.19
2018-11-03T01:23:12.929Z,96253.06
2018-11-03T01:25:44.732Z,96252.36
2018-11-03T01:28:16.527Z,96251.28
2018-11-03T01:30:48.418Z,96258.74
2018-11-03T01:33:20.250Z,96258.60
2018-11-03T01:35:52.065Z,96261.72
2018-11-03T01:38:26.415Z,96251.77
2018-11-03T01:40:58.267Z,96253.20
2018-11-03T01:43:30.013Z,96254.85
2018-11-03T01:46:01.904Z,96259.45
2018-11-03T01:48:33.729Z,96257.86
2018-11-03T01:51:05.508Z,96253.52
2018-11-03T01:53:37.307Z,96248.37
2018-11-03T01:56:09.128Z,96253.45
2018-11-03T01:58:40.961Z,96251.45
2018-11-03T02:01:12.784Z,96245.77
2018-11-03T02:03:44.582Z,96234.94
2018-11-03T02:06:16.441Z,96239.60
2018-11-03T02:08:48.234Z,96239.92
2018-11-03T02:11:20.070Z,96232.84
2018-11-03T02:13:54.035Z,96235.47
2018-11-03T02:16:25.841Z,96236.48
2018-11-03T02:18:57.643Z,96235.57
2018-11-03T02:21:29.449Z,96236.69
2018-11-03T02:24:01.235Z,96232.03
2018-11-03T02:26:33.070Z,96236.59
2018-11-03T02:29:04.864Z,96235.53
2018-11-03T02:31:36.699Z,96234.52
2018-11-03T02:34:08.534Z,96231.15
2018-11-03T02:36:42.647Z,96226.63
2018-11-03T02:39:14.441Z,96223.55
2018-11-03T02:41:46.260Z,96221.50
2018-11-03T02:44:18.043Z,96215.90
2018-11-03T02:46:49.866Z,96210.05
2018-11-03T02:49:21.910Z,96201.73
2018-11-03T02:51:53.802Z,96200.59
2018-11-03T02:54:25.593Z,96196.94
2018-11-03T02:56:57.409Z,96199.14
2018-11-03T02:59:29.199Z,96203.88
2018-11-03T03:02:01.029Z,96190.41
2018-11-03T03:04:32.817Z,96187.36
2018-11-03T03:07:04.628Z,96189.01
2018-11-03T03:09:36.450Z,96184.20
2018-11-03T03:12:08.572Z,96189.92
2018-11-03T03:14:40.357Z,96189.01
2018-11-03T03:17:12.169Z,96191.78
2018-11-03T03:19:43.965Z,96197.49
2018-11-03T03:22:15.785Z,96193.50
2018-11-03T03:24:47.634Z,96192.03
2018-11-03T03:27:19.484Z,96190.27
2018-11-03T03:29:51.285Z,96194.09
2018-11-03T03:32:23.184Z,96193.98
2018-11-03T03:34:54.969Z,96187.14
2018-11-03T03:37:26.854Z,96186.69
2018-11-03T03:39:58.754Z,96190.47
2018-11-03T03:42:30.702Z,96195.59
2018-11-03T03:45:02.860Z,96193.95
2018-11-03T03:47:34.635Z,96187.36
2018-11-03T03:50:06.938Z,96191.81
2018-11-03T03:52:38.967Z,96188.21
2018-11-03T03:55:10.992Z,96187.97
2018-11-03T03:57:42.794Z,96192.20
2018-11-03T04:00:14.616Z,96201.38
2018-11-03T04:02:46.469Z,96202.47
2018-11-03T04:05:18.260Z,96201.95
2018-11-03T04:07:50.108Z,96201.52
2018-11-03T04:10:24.327Z,96199.03
2018-11-03T04:12:56.158Z,96201.11
2018-11-03T04:15:28.380Z,96192.38
2018-11-03T04:18:00.220Z,96196.09
2018-11-03T04:20:32.022Z,96180.98
2018-11-03T04:23:03.843Z,96192.30
2018-11-03T04:25:35.643Z,96192.41
2018-11-03T04:28:07.472Z,96194.62
2018-11-03T04:30:39.344Z,96193.51
2018-11-03T04:33:11.086Z,96191.57
2018-11-03T04:35:42.879Z,96187.81
2018-11-03T04:38:14.707Z,96196.09
2018-11-03T04:40:46.502Z,96189.50
2018-11-03T04:43:18.315Z,96189.50
2018-11-03T04:45:50.085Z,96186.80
2018-11-03T04:48:21.901Z,96199.56
2018-11-03T04:50:53.716Z,96196.55
2018-11-03T04:53:25.561Z,96202.89
2018-11-03T04:55:57.429Z,96207.59
2018-11-03T04:58:29.251Z,96202.25
2018-11-03T05:01:01.179Z,96213.63
2018-11-03T05:03:32.994Z,96218.81
2018-11-03T05:06:04.809Z,96217.27
2018-11-03T05:08:36.609Z,96213.66
2018-11-03T05:11:08.435Z,96215.66
2018-11-03T05:13:43.315Z,96214.64
2018-11-03T05:16:15.123Z,96216.64
2018-11-03T05:18:46.967Z,96223.13
2018-11-03T05:21:18.852Z,96224.48
2018-11-03T05:23:50.595Z,96224.73
2018-11-03T05:26:22.396Z,96224.59
2018-11-03T05:28:54.238Z,96225.09
2018-11-03T05:31:26.238Z,96224.52
2018-11-03T05:33:58.204Z,96223.92
2018-11-03T05:36:29.996Z,96224.70
2018-11-03T05:39:01.853Z,96224.03
2018-11-03T05:41:33.685Z,96233.50
2018-11-03T05:44:05.511Z,96231.61
2018-11-03T05:46:37.355Z,96229.64
2018-11-03T05:49:09.485Z,96227.68
2018-11-03T05:51:41.329Z,96231.22
2018-11-03T05:54:13.143Z,96231.89
2018-11-03T05:56:44.939Z,96238.20
2018-11-03T05:59:16.767Z,96235.19
2018-11-03T06:01:48.885Z,96232.17
2018-11-03T06:04:22.634Z,96232.69
2018-11-03T06:06:54.490Z,96233.05
2018-11-03T06:09:26.290Z,96228.00
2018-11-03T06:11:58.266Z,96224.91
2018-11-03T06:14:30.082Z,96232.09
2018-11-03T06:17:01.856Z,96225.19
2018-11-03T06:19:33.666Z,96227.58
2018-11-03T06:22:05.465Z,96234.52
2018-11-03T06:24:37.368Z,96232.06
2018-11-03T06:27:09.210Z,96233.36
2018-11-03T06:29:41.049Z,96235.84
2018-11-03T06:32:12.856Z,96236.37
2018-11-03T06:34:44.692Z,96240.30
2018-11-03T06:37:19.332Z,96250.02
2018-11-03T06:39:51.164Z,96255.12
2018-11-03T06:42:22.937Z,96258.14
2018-11-03T06:44:54.770Z,96264.73
2018-11-03T06:47:26.704Z,96261.52
2018-11-03T06:50:00.280Z,96269.29
2018-11-03T06:52:30.304Z,96267.19
2018-11-03T06:55:02.176Z,96266.20
2018-11-03T06:57:34.080Z,96261.34
2018-11-03T07:00:07.457Z,96269.96
2018-11-03T07:02:39.282Z,96268.80
2018-11-03T07:05:11.185Z,96269.29
2018-11-03T07:07:42.966Z,96271.67
2018-11-03T07:10:14.797Z,96272.44
2018-11-03T07:12:46.805Z,96265.73
2018-11-03T07:15:18.433Z,96262.33
2018-11-03T07:17:50.263Z,96259.33
2018-11-03T07:20:22.091Z,96263.20
2018-11-03T07:22:53.976Z,96269.17
2018-11-03T07:25:25.799Z,96267.22
2018-11-03T07:27:57.670Z,96268.52
2018-11-03T07:30:29.500Z,96272.69
2018-11-03T07:33:01.283Z,96268.72
2018-11-03T07:35:33.155Z,96265.30
2018-11-03T07:38:05.026Z,96267.98
2018-11-03T07:40:36.885Z,96277.81
2018-11-03T07:43:08.629Z,96272.94
2018-11-03T07:45:40.433Z,96273.36
2018-11-03T07:48:12.413Z,96268.86
2018-11-03T07:50:44.101Z,96272.66
2018-11-03T07:53:15.886Z,96278.51
2018-11-03T07:55:47.724Z,96283.38
2018-11-03T07:58:19.751Z,96282.81
2018-11-03T08:00:51.677Z,96274.39
2018-11-03T08:03:23.935Z,96271.75
2018-11-03T08:05:55.852Z,96279.61
2018-11-03T08:08:27.794Z,96280.59
2018-11-03T08:10:59.640Z,96284.27
2018-11-03T08:13:31.457Z,96286.00
2018-11-03T08:16:03.456Z,96282.92
2018-11-03T08:18:35.115Z,96282.64
2018-11-03T08:21:07.060Z,96279.55
2018-11-03T08:23:38.978Z,96280.27
2018-11-03T08:26:10.881Z,96281.84
2018-11-03T08:28:42.706Z,96282.53
2018-11-03T08:31:14.570Z,96287.48
2018-11-03T08:33:46.607Z,96281.59
2018-11-03T08:36:20.206Z,96286.29
2018-11-03T08:38:52.004Z,96275.77
2018-11-03T08:41:23.840Z,96276.23
2018-11-03T08:43:57.841Z,96275.28
2018-11-03T08:46:29.725Z,96269.53
2018-11-03T08:49:01.622Z,96267.89
2018-11-03T08:51:33.430Z,96265.06
2018-11-03T08:54:05.229Z,96261.63
2018-11-03T08:56:37.152Z,96267.53
2018-11-03T08:59:09.397Z,96263.59
2018-11-03T09:01:41.299Z,96267.63
2018-11-03T09:04:13.117Z,96263.44
2018-11-03T09:06:45.051Z,96257.54
2018-11-03T09:09:16.874Z,96258.35
2018-11-03T09:11:48.814Z,96251.04
2018-11-03T09:14:20.734Z,96248.19
2018-11-03T09:16:52.852Z,96242.20
2018-11-03T09:19:24.724Z,96236.45
2018-11-03T09:21:56.695Z,96231.36
2018-11-03T09:24:28.488Z,96236.91
2018-11-03T09:27:00.415Z,96230.80
2018-11-03T09:29:32.255Z,96230.22
2018-11-03T09:32:04.176Z,96243.11
2018-11-03T09:34:36.104Z,96231.30
2018-11-03T09:37:08.571Z,96234.16
2018-11-03T09:39:40.441Z,96230.25
2018-11-03T09:42:12.415Z,96234.81
2018-11-03T09:44:44.259Z,96239.77
2018-11-03T09:47:16.131Z,96225.74
2018-11-03T09:49:47.975Z,96234.05
2018-11-03T09:52:19.966Z,96238.89
2018-11-03T09:54:51.811Z,96235.59
2018-11-03T09:57:23.716Z,96230.98
2018-11-03T09:59:55.607Z,96224.00
2018-11-03T10:02:27.487Z,96228.38
2018-11-03T10:04:59.295Z,96229.44
2018-11-03T10:07:31.169Z,96229.34
2018-11-03T10:10:03.071Z,96226.72
2018-11-03T10:12:34.950Z,96223.28
2018-11-03T10:15:06.916Z,96220.91
2018-11-03T10:17:38.826Z,96216.16
2018-11-03T10:20:11.278Z,96215.19
2018-11-03T10:22:43.184Z,96210.73
2018-11-03T10:25:16.901Z,96208.02
2018-11-03T10:27:49.197Z,96208.58
2018-11-03T10:30:21.003Z,96203.98
2018-11-03T10:32:52.835Z,96200.11
2018-11-03T10:35:24.804Z,96203.64
2018-11-03T10:37:56.716Z,96200.19
2018-11-03T10:40:28.514Z,96202.41
2018-11-03T10:43:00.385Z,96205.48
2018-11-03T10:45:32.336Z,96199.20
2018-11-03T10:48:04.278Z,96200.31
2018-11-03T10:50:36.174Z,96197.48
2018-11-03T10:53:08.420Z,96200.59
2018-11-03T10:55:40.415Z,96205.95
2018-11-03T10:58:12.282Z,96204.86
2018-11-03T11:01:01.263Z,96203.00
2018-11-03T11:03:50.139Z,96205.59
2018-11-03T11:06:39.088Z,96203.91
2018-11-03T11:09:28.263Z,96199.22
2018-11-03T11:12:17.536Z,96196.85
2018-11-03T11:14:49.438Z,96187.92
2018-11-03T11:17:21.444Z,96178.59
2018-11-03T11:19:53.520Z,96171.48
2018-11-03T11:22:25.415Z,96168.63
2018-11-03T11:24:57.608Z,96169.13
2018-11-03T11:27:29.402Z,96156.53
2018-11-03T11:30:01.409Z,96156.56
2018-11-03T11:32:33.573Z,96151.69
2018-11-03T11:35:07.295Z,96157.19
2018-11-03T11:37:39.991Z,96154.84
2018-11-03T11:40:11.845Z,96159.38
2018-11-03T11:42:43.848Z,96158.98
2018-11-03T11:45:15.840Z,96153.52
2018-11-03T11:47:47.739Z,96154.73
2018-11-03T11:50:19.866Z,96156.03
2018-11-03T11:52:51.949Z,96154.22
2018-11-03T11:55:23.838Z,96155.47
2018-11-03T11:57:55.744Z,96158.38
2018-11-03T12:00:27.727Z,96165.00
2018-11-03T12:02:59.658Z,96156.07
2018-11-03T12:05:31.643Z,96157.93
2018-11-03T12:08:03.547Z,96157.03
2018-11-03T12:10:35.614Z,96161.63
2018-11-03T12:13:07.748Z,96152.06
2018-11-03T12:15:39.661Z,96146.44
2018-11-03T12:18:11.513Z,96149.73
2018-11-03T12:20:43.474Z,96143.69
2018-11-03T12:23:15.550Z,96140.33
2018-11-03T12:25:47.499Z,96136.55
2018-11-03T12:28:19.473Z,96131.63
2018-11-03T12:30:51.335Z,96121.63
2018-11-03T12:33:23.235Z,96124.40
2018-11-03T12:35:55.556Z,96124.23
2018-11-03T12:38:27.749Z,96127.42
2018-11-03T12:40:59.811Z,96125.78
2018-11-03T12:43:31.558Z,96117.21
2018-11-03T12:46:03.595Z,96115.61
2018-11-03T12:48:35.732Z,96113.01
2018-11-03T12:51:08.231Z,96119.52
2018-11-03T12:53:43.276Z,96109.39
2018-11-03T12:56:15.315Z,96105.77
2018-11-03T12:58:47.362Z,96106.44
2018-11-03T13:01:20.129Z,96103.46
2018-11-03T13:03:54.104Z,96104.17
2018-11-03T13:06:26.028Z,96107.24
2018-11-03T13:08:57.971Z,96108.33
2018-11-03T13:11:29.809Z,96102.45
2018-11-03T13:14:01.715Z,96108.05
2018-11-03T13:16:33.618Z,96089.80
2018-11-03T13:19:05.487Z,96101.47
2018-11-03T13:21:37.376Z,96092.58
2018-11-03T13:24:09.313Z,96095.17
2018-11-03T13:26:41.189Z,96094.38
2018-11-03T13:29:13.043Z,96092.09
2018-11-03T13:31:44.938Z,96094.17
2018-11-03T13:34:16.728Z,96085.30
2018-11-03T13:36:48.675Z,96090.00
2018-11-03T13:39:20.505Z,96082.86
2018-11-03T13:41:52.398Z,96083.03
2018-11-03T13:44:24.178Z,96076.34
2018-11-03T13:46:56.053Z,96075.09
2018-11-03T13:49:27.992Z,96068.64
2018-11-03T13:51:59.915Z,96063.90
2018-11-03T13:54:31.754Z,96059.36
2018-11-03T13:57:03.808Z,96061.13
2018-11-03T13:59:35.577Z,96060.87
2018-11-03T14:02:07.443Z,96063.39
2018-11-03T14:04:39.266Z,96064.23
2018-11-03T14:07:11.203Z,96068.73
2018-11-03T14:09:42.952Z,96058.94
2018-11-03T14:12:14.806Z,96063.36
2018-11-03T14:14:46.602Z,96060.17
2018-11-03T14:17:18.590Z,96056.80
2018-11-03T14:19:50.354Z,96055.28
2018-11-03T14:22:22.378Z,96062.13
2018-11-03T14:24:54.205Z,96054.88
2018-11-03T14:27:26.065Z,96055.41
2018-11-03T14:29:57.916Z,96046.54
2018-11-03T14:32:29.709Z,96051.80
2018-11-03T14:35:01.548Z,96054.61
2018-11-03T14:37:33.393Z,96048.14
2018-11-03T14:40:05.270Z,96037.25
2018-11-03T14:42:37.113Z,96034.56
2018-11-03T14:45:10.450Z,96044.98
2018-11-03T14:47:42.372Z,96039.84
2018-11-03T14:50:14.201Z,96034.02
2018-11-03T14:52:46.147Z,96035.88
2018-11-03T14:55:17.976Z,96037.08
2018-11-03T14:57:49.817Z,96037.75
2018-11-03T15:00:21.660Z,96041.98
2018-11-03T15:02:53.647Z,96035.89
2018-11-03T15:05:25.499Z,96024.52
2018-11-03T15:07:59.603Z,96024.90
2018-11-03T15:10:31.528Z,96019.56
2018-11-03T15:13:03.315Z,96016.42
2018-11-03T15:15:35.183Z,96021.27
2018-11-03T15:18:07.112Z,96019.11
2018-11-03T15:20:38.957Z,96018.56
2018-11-03T15:23:10.898Z,96022.63
2018-11-03T15:25:42.722Z,96014.27
2018-11-03T15:28:14.639Z,96012.46
2018-11-03T15:30:46.498Z,96014.97
2018-11-03T15:33:18.406Z,96008.25
2018-11-03T15:35:50.281Z,96014.23
2018-11-03T15:38:22.106Z,96007.87
2018-11-03T15:40:53.900Z,96013.92
2018-11-03T15:43:25.815Z,96013.30
2018-11-03T15:45:57.557Z,96012.92
2018-11-03T15:48:29.405Z,96003.55
2018-11-03T15:51:01.281Z,96008.22
2018-11-03T15:53:33.121Z,96010.57
2018-11-03T15:56:05.040Z,96014.66
2018-11-03T15:58:36.869Z,96013.11
2018-11-03T16:01:08.727Z,96019.80
2018-11-03T16:03:41.076Z,96022.22
2018-11-03T16:06:15.489Z,96023.12
2018-11-03T16:08:47.395Z,96027.84
2018-11-03T16:11:19.208Z,96021.56
2018-11-03T16:13:51.037Z,96021.56
2018-11-03T16:16:22.882Z,96030.26
2018-11-03T16:18:57.744Z,96027.19
2018-11-03T16:21:29.594Z,96039.17
2018-11-03T16:24:01.454Z,96037.41
2018-11-03T16:26:33.447Z,96027.52
2018-11-03T16:29:05.237Z,96024.58
2018-11-03T16:31:37.040Z,96022.75
2018-11-03T16:34:08.895Z,96027.88
2018-11-03T16:36:40.721Z,96025.52
2018-11-03T16:39:12.671Z,96035.47
2018-11-03T16:41:44.382Z,96037.65
2018-11-03T16:44:16.262Z,96035.24
2018-11-03T16:46:48.161Z,96028.34
2018-11-03T16:49:23.278Z,96039.41
2018-11-03T16:51:57.021Z,96041.34
2018-11-03T16:54:32.213Z,96040.31
2018-11-03T16:57:04.064Z,96043.53
2018-11-03T16:59:35.906Z,96041.60
2018-11-03T17:02:07.967Z,96038.95
2018-11-03T17:04:39.800Z,96037.63
2018-11-03T17:07:11.663Z,96032.91
2018-11-03T17:09:43.555Z,96028.91
2018-11-03T17:12:15.449Z,96023.26
2018-11-03T17:14:47.339Z,96021.00
2018-11-03T17:17:19.150Z,96029.46
2018-11-03T17:19:50.984Z,96027.20
2018-11-03T17:22:22.811Z,96017.59
2018-11-03T17:24:54.708Z,96011.31
2018-11-03T17:27:26.498Z,96010.08
2018-11-03T17:29:58.341Z,96005.02
2018-11-03T17:32:30.348Z,96008.99
2018-11-03T17:35:02.111Z,96002.52
2018-11-03T17:37:33.942Z,96005.48
2018-11-03T17:40:06.463Z,96001.65
2018-11-03T17:42:38.276Z,96000.03
2018-11-03T17:45:11.575Z,95995.78
2018-11-03T17:47:43.406Z,95987.39
2018-11-03T17:50:15.414Z,95994.86
2018-11-03T17:52:47.222Z,95989.53
2018-11-03T17:55:19.140Z,95991.88
2018-11-03T17:57:50.960Z,95993.34
2018-11-03T18:00:25.217Z,95991.25
2018-11-03T18:02:56.838Z,95989.83
2018-11-03T18:05:28.798Z,95989.45
2018-11-03T18:08:00.642Z,95983.95
2018-11-03T18:10:32.574Z,95992.56
2018-11-03T18:13:04.417Z,95993.77
2018-11-03T18:15:36.251Z,95996.34
2018-11-03T18:18:08.183Z,95998.73
2018-11-03T18:23:10.388Z,96001.22
2018-11-03T18:25:42.286Z,95997.12
2018-11-03T18:28:14.139Z,95999.95
2018-11-03T18:30:46.050Z,95991.75
2018-11-03T18:33:17.969Z,95988.64
2018-11-03T18:35:49.759Z,95990.80
2018-11-03T18:38:21.572Z,95989.50
2018-11-03T18:40:53.418Z,95980.42
2018-11-03T18:43:25.307Z,95979.92
2018-11-03T18:45:57.190Z,95972.30
2018-11-03T18:48:29.066Z,95968.86
2018-11-03T18:51:00.931Z,95969.45
2018-11-03T18:53:32.834Z,95972.36
2018-11-03T18:56:04.714Z,95967.65
2018-11-03T18:58:36.552Z,95972.30
2018-11-03T19:01:08.585Z,95974.50
2018-11-03T19:03:40.410Z,95975.95
2018-11-03T19:06:12.291Z,95973.20
2018-11-03T19:08:44.119Z,95980.39
2018-11-03T19:11:15.945Z,95979.61
2018-11-03T19:13:47.879Z,95972.59
2018-11-03T19:16:19.725Z,95969.72
2018-11-03T19:18:51.781Z,95967.06
2018-11-03T19:21:23.951Z,95967.37
2018-11-03T19:23:56.026Z,95957.59
2018-11-03T19:26:28.057Z,95952.06
2018-11-03T19:29:00.121Z,95944.11
2018-11-03T19:31:32.330Z,95942.03
2018-11-03T19:34:04.520Z,95940.30
2018-11-03T19:36:36.679Z,95943.92
2018-11-03T19:39:10.520Z,95942.72
2018-11-03T19:41:42.744Z,95936.14
2018-11-03T19:44:14.759Z,95944.32
2018-11-03T19:46:46.920Z,95943.42
2018-11-03T19:49:18.976Z,95947.20
2018-11-03T19:51:51.162Z,95949.53
2018-11-03T19:54:23.205Z,95954.23
2018-11-03T19:56:55.371Z,95960.32
2018-11-03T19:59:27.186Z,95958.09
2018-11-03T20:01:59.116Z,95959.33
2018-11-03T20:04:30.953Z,95952.34
2018-11-03T20:07:02.801Z,95949.85
2018-11-03T20:09:34.602Z,95947.94
2018-11-03T20:12:06.724Z,95950.42
2018-11-03T20:14:39.550Z,95955.61
2018-11-03T20:17:11.571Z,95963.88
2018-11-03T20:19:43.444Z,95963.67
2018-11-03T20:22:15.372Z,95971.70
2018-11-03T20:24:47.216Z,95955.87
2018-11-03T20:27:19.086Z,95960.86
2018-11-03T20:29:50.948Z,95949.23
2018-11-03T20:32:22.795Z,95957.73
2018-11-03T20:34:54.669Z,95948.39
2018-11-03T20:37:26.494Z,95950.67
2018-11-03T20:39:58.356Z,95955.76
2018-11-03T20:42:30.239Z,95952.10
2018-11-03T20:45:02.185Z,95941.31
2018-11-03T20:47:34.045Z,95947.63
2018-11-03T20:50:06.541Z,95943.35
2018-11-03T20:52:38.445Z,95930.77
2018-11-03T20:55:10.918Z,95930.00
2018-11-03T20:57:42.954Z,95935.65
2018-11-03T21:00:22.785Z,95927.98
2018-11-03T21:02:54.656Z,95928.00
2018-11-03T21:05:26.485Z,95930.75
2018-11-03T21:07:58.361Z,95925.10
2018-11-03T21:10:30.158Z,95925.38
2018-11-03T21:13:02.017Z,95925.76
2018-11-03T21:15:33.868Z,95922.30
2018-11-03T21:18:05.749Z,95924.22
2018-11-03T21:20:37.826Z,95911.80
2018-11-03T21:23:09.710Z,95905.81
2018-11-03T21:25:41.578Z,95907.05
2018-11-03T21:28:13.481Z,95897.34
2018-11-03T21:30:45.363Z,95901.07
2018-11-03T21:33:17.272Z,95897.48
2018-11-03T21:35:49.096Z,95900.58
2018-11-03T21:38:21.084Z,95898.46
2018-11-03T21:40:52.825Z,95890.06
2018-11-03T21:43:24.689Z,95900.49
2018-11-03T21:45:56.643Z,95903.00
2018-11-03T21:48:28.486Z,95894.75
2018-11-03T21:51:00.327Z,95896.16
2018-11-03T21:53:32.213Z,95899.20
2018-11-03T21:56:04.124Z,95892.89
2018-11-03T21:58:35.951Z,95895.24
2018-11-03T22:01:07.874Z,95890.05
2018-11-03T22:03:39.682Z,95892.37
2018-11-03T22:06:11.515Z,95890.61
2018-11-03T22:08:43.349Z,95883.56
2018-11-03T22:11:15.173Z,95891.88
2018-11-03T22:13:47.009Z,95894.72
2018-11-03T22:16:18.862Z,95882.61
2018-11-03T22:18:50.937Z,95871.41
2018-11-03T22:21:22.777Z,95870.80
2018-11-03T22:23:54.704Z,95866.38
2018-11-03T22:26:26.504Z,95871.48
2018-11-03T22:28:58.354Z,95873.95
2018-11-03T22:31:30.659Z,95870.59
2018-11-03T22:34:02.586Z,95872.41
2018-11-03T22:36:34.370Z,95867.67
2018-11-03T22:39:07.965Z,95868.08
2018-11-03T22:41:39.798Z,95859.25
2018-11-03T22:44:11.653Z,95856.34
2018-11-03T22:46:43.447Z,95858.63
2018-11-03T22:49:15.598Z,95858.27
2018-11-03T22:51:47.504Z,95870.34
2018-11-03T22:54:19.252Z,95863.77
2018-11-03T22:56:51.151Z,95855.17
2018-11-03T22:59:23.049Z,95860.45
2018-11-03T23:01:54.773Z,95854.80
2018-11-03T23:04:26.572Z,95835.23
2018-11-03T23:06:58.401Z,95830.22
2018-11-03T23:09:30.199Z,95828.45
2018-11-03T23:12:02.007Z,95825.81
2018-11-03T23:14:33.882Z,95815.11
2018-11-03T23:17:05.712Z,95816.16
2018-11-03T23:19:38.083Z,95812.91
2018-11-03T23:22:10.499Z,95814.44
2018-11-03T23:24:42.208Z,95809.11
2018-11-03T23:27:14.020Z,95821.02
2018-11-03T23:29:46.014Z,95814.20
2018-11-03T23:32:17.755Z,95802.91
2018-11-03T23:34:49.597Z,95799.30
2018-11-03T23:37:21.405Z,95805.70
2018-11-03T23:39:53.217Z,95809.22
2018-11-03T23:42:25.039Z,95797.43
2018-11-03T23:44:56.902Z,95795.63
2018-11-03T23:47:28.642Z,95793.33
2018-11-03T23:50:00.482Z,95792.59
2018-11-03T23:52:35.921Z,95792.07
2018-11-03T23:55:07.752Z,95790.97
2018-11-03T23:57:39.552Z,95793.60
